Terminal Aerodrome Forecast
Issued by NWS

Home | Current Version | Previous Version | Text Only | Print | Product List | Glossary On
Versions: 1 2 3 4 5 6 7 8 9 10 11 12 13 14
029
FTUS43 KIWX 181126
TAFSBN
TAF
KSBN 181126Z 1812/1912 26012KT P6SM SCT025 BKN050
      TEMPO 1813/1815 BKN025
     FM181500 29013G20KT P6SM BKN040
     FM182200 30007KT P6SM BKN100
     FM190600 26004KT 6SM -SHRA OVC040=

USA.gov is the U.S. government's official web portal to all federal, state and local government web resources and services.